Time;durP1;ratioP1;P1;durP2;ratioP2;P2;SDS_P1;SDS_P2;PMS_P1;PMS_P2;Temp;Humidity;BMP_temperature;BMP_pressure;BME280_temperature;BME280_humidity;BME280_pressure;Samples;Min_cycle;Max_cycle;Signal;HPM_P1;HPM_P2
2021/12/01 00:00:44;;;;;;;2.97;2.77;;;7.30;99.90;;;;;;4994063;28;20291;-53
2021/12/01 00:03:12;;;;;;;3.40;3.10;;;7.30;99.90;;;;;;4994401;28;20254;-53
2021/12/01 00:05:41;;;;;;;3.00;2.80;;;7.30;99.90;;;;;;4993467;28;20326;-53
2021/12/01 00:08:09;;;;;;;3.20;2.73;;;7.40;99.90;;;;;;4994328;28;20246;-53
2021/12/01 00:10:39;;;;;;;2.80;2.60;;;7.30;99.90;;;;;;4993856;28;20313;-54
2021/12/01 00:13:10;;;;;;;3.13;2.93;;;7.30;99.90;;;;;;4993715;28;20633;-54
2021/12/01 00:15:41;;;;;;;2.90;2.70;;;7.30;99.90;;;;;;4993661;28;20251;-53
2021/12/01 00:18:10;;;;;;;2.80;2.60;;;7.40;99.90;;;;;;4993851;28;20234;-53
2021/12/01 00:20:39;;;;;;;3.60;3.30;;;7.30;99.90;;;;;;4993462;28;20273;-53
2021/12/01 00:23:08;;;;;;;3.67;3.30;;;7.40;99.90;;;;;;4994054;28;20245;-53
2021/12/01 00:25:39;;;;;;;3.20;2.90;;;7.30;99.90;;;;;;4994016;28;20289;-52
2021/12/01 00:28:08;;;;;;;2.80;2.60;;;7.30;99.90;;;;;;4992586;28;20730;-54
2021/12/01 00:30:37;;;;;;;2.60;2.40;;;7.30;99.90;;;;;;4993397;28;20266;-54
2021/12/01 00:33:09;;;;;;;2.80;2.60;;;7.30;99.90;;;;;;4993346;28;20261;-53
2021/12/01 00:35:37;;;;;;;2.67;2.47;;;7.30;99.90;;;;;;4993467;28;20211;-54
2021/12/01 00:38:06;;;;;;;2.50;2.30;;;7.30;99.90;;;;;;4993531;28;20214;-53
2021/12/01 00:40:34;;;;;;;2.87;2.60;;;7.40;99.90;;;;;;4993454;28;20913;-53
2021/12/01 00:43:02;;;;;;;2.70;2.50;;;7.40;99.90;;;;;;4992641;28;20234;-54
2021/12/01 00:45:32;;;;;;;2.93;2.67;;;7.40;99.90;;;;;;4993522;28;20775;-54
2021/12/01 00:48:00;;;;;;;3.77;3.40;;;7.40;99.90;;;;;;4993112;28;20253;-54
2021/12/01 00:50:33;;;;;;;3.13;2.80;;;7.30;99.90;;;;;;4993557;28;20680;-54
2021/12/01 00:53:03;;;;;;;3.50;3.20;;;7.40;99.90;;;;;;4993264;28;20230;-54
2021/12/01 00:55:32;;;;;;;3.50;3.20;;;7.30;99.90;;;;;;4993492;28;20221;-54
2021/12/01 00:58:01;;;;;;;3.00;2.80;;;7.40;99.90;;;;;;4993145;28;20214;-54
2021/12/01 01:00:31;;;;;;;3.00;2.73;;;7.30;99.90;;;;;;4992804;28;20284;-53
2021/12/01 01:03:00;;;;;;;3.00;2.80;;;7.30;99.90;;;;;;4993035;28;20238;-53
2021/12/01 01:05:30;;;;;;;3.50;2.93;;;7.30;99.90;;;;;;4992820;28;20259;-54
2021/12/01 01:07:58;;;;;;;3.40;3.00;;;7.40;99.90;;;;;;4992535;28;20668;-53
2021/12/01 01:10:35;;;;;;;2.93;2.73;;;7.30;99.90;;;;;;4992427;28;20759;-54
2021/12/01 01:16:23;;;;;;;3.80;3.50;;;7.40;99.90;;;;;;4992904;28;20654;-54
2021/12/01 01:18:54;;;;;;;3.27;3.07;;;7.30;99.90;;;;;;4973364;28;20667;-54
2021/12/01 01:21:25;;;;;;;3.33;3.03;;;7.30;99.90;;;;;;4982413;28;20208;-53
2021/12/01 01:23:53;;;;;;;3.37;3.17;;;7.30;99.90;;;;;;4993027;28;20221;-53
2021/12/01 01:26:23;;;;;;;3.50;3.20;;;7.40;99.90;;;;;;4992279;28;20252;-54
2021/12/01 01:28:51;;;;;;;3.57;3.27;;;7.30;99.90;;;;;;4992596;28;20774;-53
2021/12/01 01:31:20;;;;;;;3.43;3.23;;;7.30;99.90;;;;;;4992779;28;20239;-52
2021/12/01 01:33:49;;;;;;;3.80;3.40;;;7.30;99.90;;;;;;4992423;28;20262;-54
2021/12/01 01:36:18;;;;;;;3.93;3.63;;;7.30;99.90;;;;;;4992509;28;20616;-52
2021/12/01 01:38:47;;;;;;;3.70;3.40;;;7.30;99.90;;;;;;4992233;28;20261;-54
2021/12/01 01:41:15;;;;;;;3.60;3.40;;;7.30;99.90;;;;;;4991217;28;20247;-53
2021/12/01 01:43:46;;;;;;;3.40;3.20;;;7.30;99.90;;;;;;4992538;28;20233;-53
2021/12/01 01:46:14;;;;;;;3.60;3.30;;;7.20;99.90;;;;;;4992626;28;20210;-53
2021/12/01 01:48:49;;;;;;;3.77;3.47;;;7.20;99.90;;;;;;4991903;28;20247;-54
2021/12/01 01:51:19;;;;;;;3.63;3.33;;;7.30;99.90;;;;;;4991693;28;20231;-53
2021/12/01 01:53:51;;;;;;;3.70;3.40;;;7.20;99.90;;;;;;4992069;28;20223;-53
2021/12/01 01:56:19;;;;;;;3.40;3.10;;;7.20;99.90;;;;;;4992439;28;20300;-54
2021/12/01 01:58:47;;;;;;;3.80;3.50;;;7.20;99.90;;;;;;4992188;28;20266;-55
2021/12/01 02:01:27;;;;;;;3.50;3.20;;;7.30;99.90;;;;;;4992026;28;20211;-54
2021/12/01 02:03:55;;;;;;;5.20;3.80;;;7.30;99.90;;;;;;4991968;28;20676;-53
2021/12/01 02:06:24;;;;;;;3.53;3.23;;;7.20;99.90;;;;;;4991558;28;20625;-54
2021/12/01 02:08:56;;;;;;;3.70;3.40;;;7.20;99.90;;;;;;4992137;28;20266;-54
2021/12/01 02:11:24;;;;;;;3.73;3.43;;;7.20;99.90;;;;;;4991473;28;20250;-53
2021/12/01 02:13:53;;;;;;;3.53;3.17;;;7.20;99.90;;;;;;4992095;28;20258;-54
2021/12/01 02:16:21;;;;;;;3.90;3.60;;;7.20;99.90;;;;;;4991661;28;20237;-54
2021/12/01 02:18:50;;;;;;;3.77;3.47;;;7.20;99.90;;;;;;4991906;28;20750;-54
2021/12/01 02:21:24;;;;;;;3.70;3.40;;;7.20;99.90;;;;;;4991472;28;20204;-54
2021/12/01 02:23:52;;;;;;;3.87;3.57;;;7.20;99.90;;;;;;4992097;28;20238;-54
2021/12/01 02:26:22;;;;;;;3.70;3.40;;;7.20;99.90;;;;;;4991210;28;20262;-53
2021/12/01 02:28:52;;;;;;;3.80;3.50;;;7.20;99.90;;;;;;4991915;28;20656;-54
2021/12/01 02:31:25;;;;;;;3.47;3.17;;;7.20;99.90;;;;;;4992081;28;20313;-53
2021/12/01 02:33:54;;;;;;;3.83;3.53;;;7.30;99.90;;;;;;4991797;28;20261;-53
2021/12/01 02:36:23;;;;;;;3.57;3.27;;;7.30;99.90;;;;;;4991548;28;20249;-54
2021/12/01 02:38:52;;;;;;;3.67;3.37;;;7.30;99.90;;;;;;4991262;28;20286;-54
2021/12/01 02:41:27;;;;;;;3.00;2.80;;;7.30;99.90;;;;;;4991487;28;20711;-53
2021/12/01 02:43:56;;;;;;;3.20;3.00;;;7.30;99.90;;;;;;4991639;28;20245;-54
2021/12/01 02:46:25;;;;;;;3.73;3.30;;;7.30;99.90;;;;;;4991591;28;20253;-53
2021/12/01 02:48:53;;;;;;;2.80;2.60;;;7.30;99.90;;;;;;4991241;28;20245;-53
2021/12/01 02:51:26;;;;;;;3.60;2.90;;;7.30;99.90;;;;;;4992409;28;20213;-54
2021/12/01 02:53:56;;;;;;;4.03;3.00;;;7.30;99.90;;;;;;4995239;28;20249;-54
2021/12/01 02:56:25;;;;;;;3.10;2.90;;;7.30;99.90;;;;;;4995521;28;20258;-54
2021/12/01 02:58:53;;;;;;;2.90;2.70;;;7.30;99.90;;;;;;4995130;28;20266;-54
2021/12/01 03:01:23;;;;;;;2.80;2.60;;;7.30;99.90;;;;;;4995276;28;20260;-54
2021/12/01 03:03:53;;;;;;;3.00;2.77;;;7.30;99.90;;;;;;4995542;28;20210;-54
2021/12/01 03:06:25;;;;;;;2.50;2.40;;;7.30;99.90;;;;;;4995191;28;20396;-53
2021/12/01 03:08:55;;;;;;;4.30;2.70;;;7.30;99.90;;;;;;4995230;28;20269;-54
2021/12/01 03:11:24;;;;;;;3.20;2.70;;;7.30;99.90;;;;;;4994677;28;20250;-53
2021/12/01 03:13:53;;;;;;;2.97;2.77;;;7.30;99.90;;;;;;4994929;28;20274;-53
2021/12/01 03:16:21;;;;;;;3.17;2.97;;;7.30;99.90;;;;;;4993104;28;20244;-53
2021/12/01 03:18:49;;;;;;;3.50;3.20;;;7.30;99.90;;;;;;4976918;28;20228;-55
2021/12/01 03:21:18;;;;;;;3.80;3.50;;;7.30;99.90;;;;;;4983875;28;20690;-54
2021/12/01 03:23:48;;;;;;;3.70;3.33;;;7.30;99.90;;;;;;4995218;28;20289;-53
2021/12/01 03:26:16;;;;;;;7.00;3.00;;;7.30;99.90;;;;;;4993941;28;20231;-54
2021/12/01 03:28:44;;;;;;;3.60;3.30;;;7.30;99.90;;;;;;4995080;28;20270;-54
2021/12/01 03:31:12;;;;;;;3.50;3.30;;;7.30;99.90;;;;;;4994915;28;20241;-53
2021/12/01 03:33:40;;;;;;;3.47;3.17;;;7.30;99.90;;;;;;4994653;28;20578;-53
2021/12/01 03:36:08;;;;;;;3.67;3.37;;;7.30;99.90;;;;;;4994705;28;20211;-54
2021/12/01 03:38:36;;;;;;;3.93;3.63;;;7.30;99.90;;;;;;4994573;28;20245;-54
2021/12/01 03:41:06;;;;;;;3.83;3.53;;;7.30;99.90;;;;;;4994608;28;20288;-54
2021/12/01 03:43:34;;;;;;;4.50;4.10;;;7.30;99.90;;;;;;4994414;28;20289;-53
2021/12/01 03:46:02;;;;;;;4.67;4.23;;;7.20;99.90;;;;;;4994786;28;20246;-54
2021/12/01 03:48:30;;;;;;;5.50;4.23;;;7.20;99.90;;;;;;4994149;28;20517;-53
2021/12/01 03:50:59;;;;;;;4.10;3.80;;;7.20;99.90;;;;;;4994247;28;20242;-53
2021/12/01 03:53:27;;;;;;;3.47;3.17;;;7.20;99.90;;;;;;4994558;28;20308;-52
2021/12/01 03:55:55;;;;;;;3.70;3.40;;;7.20;99.90;;;;;;4994476;28;20247;-54
2021/12/01 03:58:25;;;;;;;4.23;3.70;;;7.20;99.90;;;;;;4994092;28;20256;-54
2021/12/01 04:00:53;;;;;;;3.40;3.10;;;7.30;99.90;;;;;;4994107;28;20276;-54
2021/12/01 04:03:21;;;;;;;3.30;3.00;;;7.30;99.90;;;;;;4993267;28;20210;-54
2021/12/01 04:05:49;;;;;;;2.90;2.70;;;7.20;99.90;;;;;;4993877;28;20235;-53
2021/12/01 04:08:17;;;;;;;2.90;2.70;;;7.20;99.90;;;;;;4994368;28;20298;-54
2021/12/01 04:10:45;;;;;;;2.73;2.53;;;7.10;99.90;;;;;;4994050;28;20230;-53
2021/12/01 04:13:13;;;;;;;3.17;2.97;;;7.10;99.90;;;;;;4993718;28;20261;-53
2021/12/01 04:15:43;;;;;;;3.77;3.20;;;7.10;99.90;;;;;;4994283;28;20332;-54
2021/12/01 04:18:11;;;;;;;3.77;2.87;;;7.20;99.90;;;;;;4993909;28;20218;-53
2021/12/01 04:20:40;;;;;;;2.87;2.60;;;7.10;99.90;;;;;;4994240;28;20317;-53
2021/12/01 04:23:08;;;;;;;3.10;2.90;;;7.20;99.90;;;;;;4993650;28;20254;-54
2021/12/01 04:25:36;;;;;;;3.33;3.03;;;7.20;99.90;;;;;;4993868;28;20247;-53
2021/12/01 04:28:05;;;;;;;2.90;2.60;;;7.10;99.90;;;;;;4993438;28;20249;-54
2021/12/01 04:30:33;;;;;;;3.00;2.80;;;7.10;99.90;;;;;;4993932;28;20262;-53
2021/12/01 04:33:02;;;;;;;3.13;2.87;;;7.10;99.90;;;;;;4993579;28;20214;-53
2021/12/01 04:35:31;;;;;;;2.93;2.73;;;7.10;99.90;;;;;;4993726;28;20668;-53
2021/12/01 04:37:59;;;;;;;3.17;2.90;;;7.10;99.90;;;;;;4993642;28;20556;-53
2021/12/01 04:40:28;;;;;;;5.57;3.00;;;7.10;99.90;;;;;;4993690;28;20258;-54
2021/12/01 04:42:56;;;;;;;3.27;2.97;;;7.10;99.90;;;;;;4993351;28;20262;-54
2021/12/01 04:45:25;;;;;;;3.53;3.20;;;7.10;99.90;;;;;;4993732;28;20243;-54
2021/12/01 04:47:55;;;;;;;3.10;2.80;;;7.10;99.90;;;;;;4993424;28;20314;-54
2021/12/01 04:50:27;;;;;;;3.50;3.20;;;7.10;99.90;;;;;;4992976;28;20784;-53
2021/12/01 04:52:58;;;;;;;2.80;2.60;;;7.10;99.90;;;;;;4993140;28;20690;-53
2021/12/01 04:55:26;;;;;;;3.27;2.97;;;7.10;99.90;;;;;;4996902;28;20277;-55
2021/12/01 04:57:55;;;;;;;3.23;2.97;;;7.10;99.90;;;;;;5001872;28;20213;-56
2021/12/01 05:00:26;;;;;;;3.00;2.80;;;7.10;99.90;;;;;;4996513;28;20263;-54
2021/12/01 05:02:55;;;;;;;3.20;2.90;;;7.10;99.90;;;;;;4993378;28;20214;-54
2021/12/01 05:05:31;;;;;;;3.10;2.90;;;7.20;99.90;;;;;;4992557;28;20279;-53
2021/12/01 05:07:59;;;;;;;2.93;2.70;;;7.20;99.90;;;;;;4993299;28;20305;-54
2021/12/01 05:10:28;;;;;;;3.43;3.13;;;7.20;99.90;;;;;;4992863;28;20717;-53
2021/12/01 05:12:56;;;;;;;3.10;2.80;;;7.20;99.90;;;;;;4992758;28;20306;-54
2021/12/01 05:15:24;;;;;;;3.57;3.10;;;7.10;99.90;;;;;;4993077;28;20327;-54
2021/12/01 05:17:52;;;;;;;3.50;3.20;;;7.10;99.90;;;;;;4992769;28;20206;-54
2021/12/01 05:20:20;;;;;;;3.90;3.50;;;7.10;99.90;;;;;;4992605;28;20649;-52
2021/12/01 05:22:49;;;;;;;4.03;3.47;;;7.00;99.90;;;;;;4992640;28;20255;-54
2021/12/01 05:25:17;;;;;;;4.40;3.83;;;7.10;99.90;;;;;;4992722;28;20253;-55
2021/12/01 05:27:45;;;;;;;4.30;3.90;;;7.10;99.90;;;;;;4992093;28;20241;-54
2021/12/01 05:30:14;;;;;;;4.20;3.73;;;7.10;99.90;;;;;;4993086;28;20277;-54
2021/12/01 05:32:42;;;;;;;4.73;4.07;;;7.10;99.90;;;;;;4992449;28;20242;-54
2021/12/01 05:35:10;;;;;;;4.47;4.07;;;7.00;99.90;;;;;;4992539;28;20267;-54
2021/12/01 05:37:38;;;;;;;4.63;4.17;;;7.00;99.90;;;;;;4992460;28;20294;-52
2021/12/01 05:40:09;;;;;;;4.47;3.93;;;7.00;99.90;;;;;;4992452;28;20266;-54
2021/12/01 05:42:37;;;;;;;5.10;4.20;;;7.00;99.90;;;;;;4992136;28;20203;-54
2021/12/01 05:45:07;;;;;;;6.47;4.73;;;7.00;99.90;;;;;;4992016;28;20245;-54
2021/12/01 05:47:34;;;;;;;5.50;4.90;;;7.00;99.90;;;;;;4992367;28;20246;-54
2021/12/01 05:50:03;;;;;;;4.80;4.30;;;7.00;99.90;;;;;;4992311;28;20265;-54
2021/12/01 05:52:31;;;;;;;4.67;4.20;;;7.00;99.90;;;;;;4991958;28;20319;-54
2021/12/01 05:54:59;;;;;;;6.07;4.70;;;7.00;99.90;;;;;;4991986;28;20764;-54
2021/12/01 05:57:28;;;;;;;5.30;4.30;;;7.00;99.90;;;;;;4992053;28;20211;-54
2021/12/01 05:59:59;;;;;;;6.00;4.20;;;6.90;99.90;;;;;;4991817;28;20262;-53
2021/12/01 06:02:28;;;;;;;4.90;4.40;;;6.90;99.90;;;;;;4992097;28;20190;-54
2021/12/01 06:04:56;;;;;;;4.93;3.60;;;6.90;99.90;;;;;;4992113;28;20229;-55
2021/12/01 06:07:24;;;;;;;4.23;3.83;;;6.90;99.90;;;;;;4991710;28;20719;-53
2021/12/01 06:09:52;;;;;;;6.03;4.47;;;6.80;99.90;;;;;;4991710;28;20263;-54
2021/12/01 06:12:20;;;;;;;6.57;4.30;;;6.80;99.90;;;;;;4991757;28;20249;-54
2021/12/01 06:14:51;;;;;;;4.60;4.10;;;6.90;99.90;;;;;;4992196;28;20261;-53
2021/12/01 06:17:19;;;;;;;5.20;4.70;;;6.80;99.90;;;;;;4991850;28;20276;-55
2021/12/01 06:19:47;;;;;;;4.87;4.10;;;6.80;99.90;;;;;;4991567;28;20790;-55
2021/12/01 06:22:15;;;;;;;4.77;4.07;;;6.80;99.90;;;;;;4991529;28;20249;-53
2021/12/01 06:24:43;;;;;;;5.30;4.20;;;6.80;99.90;;;;;;4992236;28;20305;-52
2021/12/01 06:27:11;;;;;;;4.87;4.40;;;6.80;99.90;;;;;;4991062;28;20291;-54
2021/12/01 06:29:39;;;;;;;6.10;4.07;;;6.80;99.90;;;;;;4992073;28;20234;-54
2021/12/01 06:32:09;;;;;;;4.00;3.60;;;6.70;99.90;;;;;;4991923;28;20315;-53
2021/12/01 06:34:37;;;;;;;4.50;3.97;;;6.80;99.90;;;;;;4975904;28;20294;-54
2021/12/01 06:37:05;;;;;;;6.03;3.87;;;6.80;99.90;;;;;;4991218;28;20302;-54
2021/12/01 06:39:33;;;;;;;3.50;3.20;;;6.80;99.90;;;;;;4991246;28;20272;-54
2021/12/01 06:42:01;;;;;;;3.40;3.10;;;6.90;99.90;;;;;;4990980;28;20687;-54
2021/12/01 06:44:30;;;;;;;3.40;3.10;;;6.90;99.90;;;;;;4991676;28;20647;-53
2021/12/01 06:46:59;;;;;;;3.93;3.47;;;6.80;99.90;;;;;;4988916;28;20262;-53
2021/12/01 06:49:29;;;;;;;3.30;3.00;;;6.70;99.90;;;;;;4976884;28;20265;-54
2021/12/01 06:51:57;;;;;;;3.63;3.13;;;6.70;99.90;;;;;;4991595;28;20301;-54
2021/12/01 06:54:25;;;;;;;3.73;3.20;;;6.70;99.90;;;;;;4991248;28;20640;-52
2021/12/01 06:56:53;;;;;;;2.80;2.60;;;6.70;99.90;;;;;;4990746;28;20321;-54
2021/12/01 06:59:21;;;;;;;3.60;3.30;;;6.70;99.90;;;;;;4991541;28;20283;-53
2021/12/01 07:01:49;;;;;;;3.20;2.90;;;6.70;99.90;;;;;;4991307;28;20265;-55
2021/12/01 07:04:17;;;;;;;4.87;2.60;;;6.70;99.90;;;;;;4990975;28;20295;-53
2021/12/01 07:06:47;;;;;;;2.60;2.40;;;6.70;99.90;;;;;;4991569;28;20238;-53
2021/12/01 07:09:21;;;;;;;4.10;2.70;;;6.80;99.90;;;;;;4991273;28;20284;-54
2021/12/01 07:11:49;;;;;;;2.80;2.60;;;6.70;99.90;;;;;;4991101;28;20643;-52
2021/12/01 07:14:17;;;;;;;2.97;2.50;;;6.80;99.90;;;;;;4991184;28;20342;-52
2021/12/01 07:16:45;;;;;;;2.50;2.30;;;6.70;99.90;;;;;;4991493;28;20259;-54
2021/12/01 07:19:14;;;;;;;2.67;2.47;;;6.70;99.90;;;;;;4991106;28;20237;-54
2021/12/01 07:21:42;;;;;;;4.23;2.90;;;6.70;99.90;;;;;;4990842;28;20745;-54
2021/12/01 07:24:11;;;;;;;4.17;2.60;;;6.70;99.90;;;;;;4990704;28;20305;-53
2021/12/01 07:26:39;;;;;;;5.50;2.80;;;6.70;99.90;;;;;;4990937;28;20246;-53
2021/12/01 07:29:07;;;;;;;3.50;3.20;;;6.70;99.90;;;;;;4990951;28;20312;-54
2021/12/01 07:31:36;;;;;;;3.63;3.33;;;6.60;99.90;;;;;;4991076;28;20684;-53
2021/12/01 07:34:04;;;;;;;3.30;2.90;;;6.50;99.90;;;;;;4990430;28;20235;-54
2021/12/01 07:36:32;;;;;;;3.63;3.10;;;6.50;99.90;;;;;;4990700;28;20310;-54
2021/12/01 07:39:01;;;;;;;3.30;3.00;;;6.50;99.90;;;;;;4993269;28;20314;-53
2021/12/01 07:41:31;;;;;;;3.23;2.93;;;6.50;99.90;;;;;;4994104;28;20705;-54
2021/12/01 07:43:59;;;;;;;3.67;2.83;;;6.60;99.90;;;;;;4994631;28;20250;-53
2021/12/01 07:46:27;;;;;;;3.43;2.77;;;6.70;99.90;;;;;;4994018;28;20231;-52
2021/12/01 07:48:55;;;;;;;2.70;2.50;;;6.70;99.90;;;;;;4994134;28;20250;-53
2021/12/01 07:51:23;;;;;;;3.93;2.30;;;6.70;99.90;;;;;;4997560;28;20238;-52
2021/12/01 07:53:52;;;;;;;2.60;2.40;;;6.70;99.90;;;;;;4997801;28;20239;-52
2021/12/01 07:56:20;;;;;;;2.90;2.70;;;6.70;99.90;;;;;;5005070;28;20260;-53
2021/12/01 07:58:50;;;;;;;3.10;2.43;;;6.80;99.90;;;;;;5006219;28;20225;-54
2021/12/01 08:01:18;;;;;;;3.17;2.87;;;6.80;99.90;;;;;;4995014;28;20253;-53
2021/12/01 08:03:46;;;;;;;3.67;2.53;;;6.70;99.90;;;;;;4994315;28;20220;-54
2021/12/01 08:06:14;;;;;;;3.50;2.67;;;6.80;99.90;;;;;;4994072;28;20287;-54
2021/12/01 08:08:42;;;;;;;3.47;2.47;;;6.70;99.90;;;;;;4994088;28;20728;-53
2021/12/01 08:11:10;;;;;;;4.00;2.80;;;6.70;99.90;;;;;;4981224;28;20242;-54
2021/12/01 08:13:38;;;;;;;3.13;2.77;;;6.70;99.90;;;;;;4990345;28;20214;-54
2021/12/01 08:16:13;;;;;;;3.33;3.03;;;6.70;99.90;;;;;;4993542;28;20310;-54
2021/12/01 08:18:41;;;;;;;3.40;3.03;;;6.70;99.90;;;;;;4993603;28;20257;-54
2021/12/01 08:21:09;;;;;;;5.00;3.13;;;6.70;99.90;;;;;;4993725;28;20617;-54
2021/12/01 08:23:38;;;;;;;5.07;3.47;;;6.60;99.90;;;;;;4993479;28;20650;-54
2021/12/01 08:26:06;;;;;;;4.23;3.40;;;6.60;99.90;;;;;;4993918;28;20209;-54
2021/12/01 08:28:34;;;;;;;3.77;3.47;;;6.60;99.90;;;;;;4993349;28;20248;-53
2021/12/01 08:31:02;;;;;;;4.90;3.33;;;6.50;99.90;;;;;;4993687;28;20207;-53
2021/12/01 08:33:31;;;;;;;3.40;3.10;;;6.50;99.90;;;;;;4993971;28;20235;-53
2021/12/01 08:35:59;;;;;;;5.17;3.80;;;6.50;99.90;;;;;;4993537;28;20266;-54
2021/12/01 08:38:27;;;;;;;4.00;3.43;;;6.50;99.90;;;;;;4992735;28;20245;-54
2021/12/01 08:40:55;;;;;;;3.83;3.00;;;6.40;99.90;;;;;;4993318;28;20254;-55
2021/12/01 08:43:23;;;;;;;4.77;3.63;;;6.40;99.90;;;;;;4993246;28;20311;-55
2021/12/01 08:45:52;;;;;;;3.90;3.50;;;6.40;99.90;;;;;;4993259;28;20212;-55
2021/12/01 08:48:20;;;;;;;4.17;3.43;;;6.40;99.90;;;;;;4993031;28;20688;-54
2021/12/01 08:50:50;;;;;;;3.67;3.27;;;6.50;99.90;;;;;;4992438;28;20245;-53
2021/12/01 08:53:18;;;;;;;4.10;3.70;;;6.50;99.90;;;;;;4993316;28;20237;-53
2021/12/01 08:55:47;;;;;;;3.70;3.13;;;6.50;99.90;;;;;;4976810;28;20215;-53
2021/12/01 08:58:16;;;;;;;3.83;3.43;;;6.50;99.90;;;;;;4992599;28;20259;-53
2021/12/01 09:00:46;;;;;;;3.60;3.30;;;6.40;99.90;;;;;;4993381;28;20269;-54
2021/12/01 09:03:16;;;;;;;7.70;3.90;;;6.50;99.90;;;;;;4992590;28;20229;-54
2021/12/01 09:05:47;;;;;;;5.40;3.90;;;6.50;99.90;;;;;;4992901;28;20207;-53
2021/12/01 09:08:20;;;;;;;3.83;3.53;;;6.40;99.90;;;;;;4992811;28;20261;-53
2021/12/01 09:10:49;;;;;;;3.20;3.00;;;6.50;99.90;;;;;;4993225;28;20262;-54
2021/12/01 09:13:17;;;;;;;3.23;3.03;;;6.50;99.90;;;;;;4992262;28;20244;-54
2021/12/01 09:15:46;;;;;;;3.70;3.30;;;6.40;99.90;;;;;;4993203;28;20261;-54
2021/12/01 09:18:15;;;;;;;3.53;3.23;;;6.50;99.90;;;;;;4992342;28;20750;-53
2021/12/01 09:20:43;;;;;;;3.60;3.30;;;6.60;99.90;;;;;;4992460;28;20252;-54
2021/12/01 09:23:11;;;;;;;2.90;2.70;;;6.60;99.90;;;;;;4992414;28;20236;-54
2021/12/01 09:25:41;;;;;;;3.33;3.13;;;6.60;99.90;;;;;;4992572;28;20211;-52
2021/12/01 09:28:15;;;;;;;3.03;2.73;;;6.60;99.90;;;;;;4992466;28;20200;-54
2021/12/01 09:30:43;;;;;;;3.60;2.93;;;6.60;99.90;;;;;;4992123;28;20227;-54
2021/12/01 09:33:11;;;;;;;3.47;3.17;;;6.60;99.90;;;;;;4980437;28;20238;-53
2021/12/01 09:35:40;;;;;;;3.73;3.43;;;6.70;99.90;;;;;;4988218;28;20254;-54
2021/12/01 09:38:08;;;;;;;3.80;3.50;;;6.60;99.90;;;;;;4992464;28;20224;-53
2021/12/01 09:40:36;;;;;;;4.33;3.93;;;6.70;99.90;;;;;;4992125;28;20256;-53
2021/12/01 09:43:05;;;;;;;4.30;3.90;;;6.60;99.90;;;;;;4991551;28;20252;-54
2021/12/01 09:45:34;;;;;;;4.90;4.50;;;6.60;99.90;;;;;;4992050;28;20229;-54
2021/12/01 09:48:02;;;;;;;4.20;3.80;;;6.60;99.90;;;;;;4991253;28;20263;-53
2021/12/01 09:50:30;;;;;;;5.40;4.60;;;6.60;99.90;;;;;;4992018;28;20260;-53
2021/12/01 09:52:58;;;;;;;4.80;4.37;;;6.70;99.90;;;;;;4992017;28;20237;-54
2021/12/01 09:55:26;;;;;;;6.77;4.37;;;6.60;99.90;;;;;;4992517;28;20235;-54
2021/12/01 09:58:00;;;;;;;4.50;4.10;;;6.60;99.90;;;;;;4991568;28;20264;-54
2021/12/01 10:00:31;;;;;;;5.83;4.57;;;6.60;99.90;;;;;;4990738;28;20257;-53
2021/12/01 10:03:00;;;;;;;4.83;4.33;;;6.60;99.90;;;;;;4990733;28;20682;-53
2021/12/01 10:06:00;;;;;;;4.60;4.10;;;6.60;99.90;;;;;;4992075;28;20236;-54
2021/12/01 10:08:30;;;;;;;4.87;4.37;;;6.60;99.90;;;;;;4991895;28;20249;-54
2021/12/01 10:10:59;;;;;;;5.00;4.53;;;6.60;99.90;;;;;;4991514;28;20236;-54
2021/12/01 10:13:31;;;;;;;4.80;4.40;;;6.60;99.90;;;;;;4991521;28;20256;-53
2021/12/01 10:16:02;;;;;;;4.03;3.63;;;6.60;99.90;;;;;;4991535;28;20610;-53
2021/12/01 10:18:36;;;;;;;4.70;4.20;;;6.70;99.90;;;;;;4991775;28;20250;-54
2021/12/01 10:21:09;;;;;;;4.23;3.83;;;6.60;99.90;;;;;;4991252;28;20231;-53
2021/12/01 10:23:38;;;;;;;3.93;3.63;;;6.70;99.90;;;;;;4991548;28;20741;-53
2021/12/01 10:26:22;;;;;;;4.00;3.67;;;6.70;99.90;;;;;;4991309;28;20630;-53
2021/12/01 10:28:52;;;;;;;4.63;3.77;;;6.70;99.90;;;;;;4991935;28;20270;-52
2021/12/01 10:31:34;;;;;;;4.13;3.73;;;6.70;99.90;;;;;;4991211;28;20272;-54
2021/12/01 10:34:20;;;;;;;4.10;3.70;;;6.80;99.90;;;;;;4991334;28;20243;-53
2021/12/01 10:36:51;;;;;;;4.13;3.73;;;6.70;99.90;;;;;;4991530;28;20294;-52
2021/12/01 10:39:19;;;;;;;3.70;3.40;;;6.70;99.90;;;;;;4992075;28;20328;-54
2021/12/01 10:41:47;;;;;;;3.60;3.30;;;6.60;99.90;;;;;;4991164;28;20269;-55
2021/12/01 10:44:17;;;;;;;4.07;3.67;;;6.70;99.90;;;;;;4991341;28;20292;-53
2021/12/01 10:46:49;;;;;;;3.93;3.33;;;6.80;99.90;;;;;;4991353;28;21002;-54
2021/12/01 10:49:31;;;;;;;3.00;2.80;;;6.80;99.90;;;;;;4991343;28;20262;-54
2021/12/01 10:51:59;;;;;;;3.40;3.13;;;6.80;99.90;;;;;;4991956;28;20236;-54
2021/12/01 10:54:27;;;;;;;3.53;2.60;;;6.80;99.90;;;;;;5004717;28;20222;-54
2021/12/01 10:57:20;;;;;;;3.13;2.80;;;6.90;99.90;;;;;;4995257;28;20274;-54
2021/12/01 10:59:50;;;;;;;2.70;2.50;;;6.90;99.90;;;;;;4991116;28;20282;-54
2021/12/01 11:02:22;;;;;;;2.97;2.67;;;6.90;99.90;;;;;;4991857;28;20205;-53
2021/12/01 11:04:52;;;;;;;2.60;2.37;;;6.90;99.90;;;;;;4992031;28;20243;-53
2021/12/01 11:07:27;;;;;;;2.90;2.70;;;7.00;99.90;;;;;;4990455;28;20291;-54
2021/12/01 11:10:17;;;;;;;2.47;2.27;;;7.00;99.90;;;;;;4991114;28;20293;-54
2021/12/01 11:12:53;;;;;;;2.27;2.10;;;6.90;99.90;;;;;;4992737;28;20209;-53
2021/12/01 11:15:24;;;;;;;2.30;2.10;;;7.00;99.90;;;;;;4980351;28;20200;-54
2021/12/01 11:17:55;;;;;;;2.60;2.40;;;7.00;99.90;;;;;;4975571;28;20325;-54
2021/12/01 11:20:34;;;;;;;2.60;2.40;;;7.00;99.90;;;;;;4976754;28;20230;-54
2021/12/01 11:23:24;;;;;;;2.40;2.20;;;6.90;99.90;;;;;;4994219;28;20240;-53
2021/12/01 11:25:55;;;;;;;2.20;2.00;;;7.00;99.90;;;;;;4989420;28;20630;-53
2021/12/01 11:28:26;;;;;;;2.40;2.20;;;6.90;99.90;;;;;;4994405;28;20240;-54
2021/12/01 11:30:57;;;;;;;2.23;2.10;;;7.00;99.90;;;;;;4994840;28;20250;-52
2021/12/01 11:33:28;;;;;;;2.20;2.00;;;6.90;99.90;;;;;;4994331;28;20256;-54
2021/12/01 11:35:58;;;;;;;2.00;1.90;;;7.00;99.90;;;;;;4993727;28;20247;-54
2021/12/01 11:38:27;;;;;;;2.57;2.10;;;7.00;99.90;;;;;;4994363;28;20605;-54
2021/12/01 11:40:56;;;;;;;2.20;1.80;;;7.00;99.90;;;;;;4994342;28;20245;-53
2021/12/01 11:43:25;;;;;;;2.47;2.00;;;7.10;99.90;;;;;;4994515;28;20246;-53
2021/12/01 11:45:54;;;;;;;1.97;1.87;;;7.00;99.90;;;;;;4994210;28;20302;-54
2021/12/01 11:48:25;;;;;;;2.90;1.90;;;7.00;99.90;;;;;;4993959;28;20255;-54
2021/12/01 11:51:06;;;;;;;1.80;1.70;;;7.00;99.90;;;;;;4994197;28;20250;-52
2021/12/01 11:53:37;;;;;;;1.80;1.70;;;7.00;99.90;;;;;;4994417;28;20688;-53
2021/12/01 11:56:12;;;;;;;5.50;2.03;;;7.00;99.90;;;;;;4994014;28;20335;-53
2021/12/01 11:59:02;;;;;;;2.30;2.10;;;7.10;99.90;;;;;;4993984;28;20656;-58
2021/12/01 12:01:44;;;;;;;2.17;2.03;;;7.10;99.90;;;;;;4994039;28;20293;-54
2021/12/01 12:04:41;;;;;;;2.70;2.20;;;7.10;99.90;;;;;;4994129;28;20716;-54
2021/12/01 12:07:12;;;;;;;2.10;1.90;;;7.10;99.90;;;;;;4993324;28;20302;-53
2021/12/01 12:10:16;;;;;;;2.20;2.10;;;7.10;99.90;;;;;;4994518;28;20312;-54
2021/12/01 12:12:55;;;;;;;2.23;2.03;;;7.10;99.90;;;;;;4993232;28;20218;-54
2021/12/01 12:15:42;;;;;;;1.90;1.80;;;7.10;99.90;;;;;;4994153;28;20240;-53
2021/12/01 12:18:13;;;;;;;2.87;2.23;;;7.10;99.90;;;;;;4993263;28;20684;-54
2021/12/01 12:20:50;;;;;;;2.10;2.00;;;7.10;99.90;;;;;;4993958;28;20282;-53
2021/12/01 12:23:32;;;;;;;2.10;1.90;;;7.20;99.90;;;;;;4992616;28;20224;-53
2021/12/01 12:26:00;;;;;;;2.23;2.10;;;7.20;99.90;;;;;;4985348;28;20313;-53
2021/12/01 12:28:35;;;;;;;2.67;2.47;;;7.20;99.90;;;;;;4989409;28;20218;-53
2021/12/01 12:31:08;;;;;;;2.30;2.10;;;7.20;99.90;;;;;;4993784;28;20234;-53
2021/12/01 12:33:39;;;;;;;2.17;1.90;;;7.20;99.90;;;;;;4993474;28;20580;-53
2021/12/01 12:36:09;;;;;;;2.47;2.27;;;7.20;99.90;;;;;;4993406;28;20258;-54
2021/12/01 12:38:39;;;;;;;2.60;2.10;;;7.20;99.90;;;;;;4993078;28;20266;-54
2021/12/01 12:41:11;;;;;;;2.30;2.10;;;7.20;99.90;;;;;;4993542;28;20212;-54
2021/12/01 12:43:42;;;;;;;2.10;1.93;;;7.20;99.90;;;;;;4993246;28;20213;-53
2021/12/01 12:46:15;;;;;;;2.20;2.00;;;7.20;99.90;;;;;;4993001;28;20584;-53
2021/12/01 12:48:45;;;;;;;2.17;1.97;;;7.20;99.90;;;;;;4992810;28;20309;-54
2021/12/01 12:51:17;;;;;;;2.87;1.97;;;7.30;99.90;;;;;;4993340;28;20265;-54
2021/12/01 12:54:15;;;;;;;2.00;1.80;;;7.30;99.90;;;;;;4993160;28;20242;-54
2021/12/01 12:56:50;;;;;;;2.27;2.07;;;7.40;99.90;;;;;;4986724;28;20210;-53
2021/12/01 12:59:26;;;;;;;2.00;1.80;;;7.40;99.90;;;;;;4992656;28;20289;-54
2021/12/01 13:01:55;;;;;;;2.03;1.87;;;7.30;99.90;;;;;;4993275;28;20265;-53
2021/12/01 13:05:01;;;;;;;1.97;1.77;;;7.40;99.90;;;;;;4992565;28;20211;-54
2021/12/01 13:07:38;;;;;;;2.23;2.03;;;7.40;99.90;;;;;;4992732;28;20212;-53
2021/12/01 13:10:11;;;;;;;3.20;2.10;;;7.40;99.90;;;;;;4992268;28;20741;-54
2021/12/01 13:12:55;;;;;;;2.50;2.30;;;7.40;99.90;;;;;;4992542;28;20298;-54
2021/12/01 13:15:27;;;;;;;2.23;1.90;;;7.40;99.90;;;;;;4975467;28;20239;-52
2021/12/01 13:17:57;;;;;;;1.83;1.60;;;7.50;99.90;;;;;;4992708;28;20213;-53